Asterion — FICK — position and weather

sailwx.info

Track history (hours):
 
Tides and Currents Weather Stations Pressure Air Temp Water Temp Dewpoint Dewpoint Depression Visibility Wind Speed Wind Dir Waves Ship Positions

Asterion

Last reported at 2016-May-27 13:32 UTC. Time now 2016-May-28 02:04 UTC.
Position N 29°09' W 013°11'.

Length 184 m; draft 7 m.

Type: Tanker. MMSI: 226000000.

Date/timePositionNaut miles runAvg speedWind from/ knotsBaromVisibWave heightAir tempDewpointWater temp
2016-May-27 13:32N 29°09' W 013°11'1414.1
2016-May-27 12:33N 28°59' W 013°21'1414.2
2016-May-27 11:34N 28°48' W 013°32'1414.2
2016-May-27 10:33N 28°37' W 013°42'1111.1
2016-May-27 09:34N 28°29' W 013°51'  
2016-May-24 06:26N 48°53' E 002°15'1436128.3
2016-May-23 19:15N 28°30' W 013°49'912.7
2016-May-23 18:33N 28°38' W 013°44'1313.4
2016-May-23 17:33N 28°49' W 013°37'10 8.0
2016-May-23 16:21N 28°58' W 013°32'0 0.0
2016-May-23 15:24N 28°58' W 013°32'0 0.0
2016-May-23 14:27N 28°58' W 013°32'  
2016-May-18 12:19N 28°58' W 013°32'0 0.0
2016-May-18 11:31N 28°58' W 013°32'0 0.0
2016-May-17 15:33N 28°58' W 013°32'1 0.5
2016-May-17 14:13N 28°57' W 013°31'  
Track history (hours):
 
Tides and Currents Weather Stations Pressure Air Temp Water Temp Dewpoint Dewpoint Depression Visibility Wind Speed Wind Dir Waves Ship Positions

Asterion

Last reported at 2016-May-27 13:32 UTC. Time now 2016-May-28 02:04 UTC.
Position N 29°09' W 013°11'.

Length 184 m; draft 7 m.

Type: Tanker. MMSI: 226000000.

Date/timePositionNaut miles runAvg speedWind from/ knotsBaromVisibWave heightAir tempDewpointWater temp
2016-May-27 13:32N 29°09' W 013°11'1414.1
2016-May-27 12:33N 28°59' W 013°21'1414.2
2016-May-27 11:34N 28°48' W 013°32'1414.2
2016-May-27 10:33N 28°37' W 013°42'1111.1
2016-May-27 09:34N 28°29' W 013°51'  
2016-May-24 06:26N 48°53' E 002°15'1436128.3
2016-May-23 19:15N 28°30' W 013°49'912.7
2016-May-23 18:33N 28°38' W 013°44'1313.4
2016-May-23 17:33N 28°49' W 013°37'10 8.0
2016-May-23 16:21N 28°58' W 013°32'0 0.0
2016-May-23 15:24N 28°58' W 013°32'0 0.0
2016-May-23 14:27N 28°58' W 013°32'  
2016-May-18 12:19N 28°58' W 013°32'0 0.0
2016-May-18 11:31N 28°58' W 013°32'0 0.0
2016-May-17 15:33N 28°58' W 013°32'1 0.5
2016-May-17 14:13N 28°57' W 013°31'  

Dump ship's entire track history